sensor_id;sensor_type;location;lat;lon;timestamp;temperature;humidity
11569;DHT22;5840;46.894;15.542;2023-04-07T00:01:33;3.60;74.60
11569;DHT22;5840;46.894;15.542;2023-04-07T00:04:00;3.60;74.70
11569;DHT22;5840;46.894;15.542;2023-04-07T00:06:27;3.60;74.30
11569;DHT22;5840;46.894;15.542;2023-04-07T00:08:54;3.60;74.40
11569;DHT22;5840;46.894;15.542;2023-04-07T00:11:22;3.50;74.90
11569;DHT22;5840;46.894;15.542;2023-04-07T00:13:49;3.50;74.60
11569;DHT22;5840;46.894;15.542;2023-04-07T00:16:16;3.50;75.40
11569;DHT22;5840;46.894;15.542;2023-04-07T00:18:43;3.50;74.90
11569;DHT22;5840;46.894;15.542;2023-04-07T00:21:10;3.50;75.20
11569;DHT22;5840;46.894;15.542;2023-04-07T00:23:37;3.40;75.20
11569;DHT22;5840;46.894;15.542;2023-04-07T00:26:04;3.40;75.30
11569;DHT22;5840;46.894;15.542;2023-04-07T00:28:32;3.40;75.60
11569;DHT22;5840;46.894;15.542;2023-04-07T00:30:59;3.40;75.40
11569;DHT22;5840;46.894;15.542;2023-04-07T00:33:26;3.30;75.30
11569;DHT22;5840;46.894;15.542;2023-04-07T00:35:53;3.30;76.10
11569;DHT22;5840;46.894;15.542;2023-04-07T00:38:22;3.30;76.30
11569;DHT22;5840;46.894;15.542;2023-04-07T00:40:49;3.20;75.80
11569;DHT22;5840;46.894;15.542;2023-04-07T00:43:16;3.20;76.20
11569;DHT22;5840;46.894;15.542;2023-04-07T00:45:45;3.20;76.30
11569;DHT22;5840;46.894;15.542;2023-04-07T00:48:12;3.20;76.50
11569;DHT22;5840;46.894;15.542;2023-04-07T00:50:39;3.20;76.60
11569;DHT22;5840;46.894;15.542;2023-04-07T00:53:06;3.20;75.90
11569;DHT22;5840;46.894;15.542;2023-04-07T00:55:34;3.20;76.50
11569;DHT22;5840;46.894;15.542;2023-04-07T00:58:01;3.20;75.50
11569;DHT22;5840;46.894;15.542;2023-04-07T01:00:30;3.20;76.10
11569;DHT22;5840;46.894;15.542;2023-04-07T01:03:06;3.20;77.00
11569;DHT22;5840;46.894;15.542;2023-04-07T01:05:39;3.10;77.40
11569;DHT22;5840;46.894;15.542;2023-04-07T01:08:13;3.00;77.40
11569;DHT22;5840;46.894;15.542;2023-04-07T01:10:44;2.90;77.60
11569;DHT22;5840;46.894;15.542;2023-04-07T01:13:22;2.90;78.20
11569;DHT22;5840;46.894;15.542;2023-04-07T01:15:51;2.80;78.50
11569;DHT22;5840;46.894;15.542;2023-04-07T01:18:25;2.80;78.70
11569;DHT22;5840;46.894;15.542;2023-04-07T01:20:55;2.70;80.00
11569;DHT22;5840;46.894;15.542;2023-04-07T01:23:36;2.70;80.10
11569;DHT22;5840;46.894;15.542;2023-04-07T01:26:17;2.60;79.60
11569;DHT22;5840;46.894;15.542;2023-04-07T01:29:06;2.60;80.40
11569;DHT22;5840;46.894;15.542;2023-04-07T01:31:40;2.60;80.50
11569;DHT22;5840;46.894;15.542;2023-04-07T01:34:09;2.50;80.50
11569;DHT22;5840;46.894;15.542;2023-04-07T01:36:36;2.50;80.30
11569;DHT22;5840;46.894;15.542;2023-04-07T01:39:05;2.50;80.30
11569;DHT22;5840;46.894;15.542;2023-04-07T01:41:32;2.50;80.90
11569;DHT22;5840;46.894;15.542;2023-04-07T01:44:00;2.40;80.50
11569;DHT22;5840;46.894;15.542;2023-04-07T01:46:28;2.40;80.80
11569;DHT22;5840;46.894;15.542;2023-04-07T01:48:57;2.40;81.50
11569;DHT22;5840;46.894;15.542;2023-04-07T01:51:24;2.40;81.30
11569;DHT22;5840;46.894;15.542;2023-04-07T01:53:52;2.40;80.60
11569;DHT22;5840;46.894;15.542;2023-04-07T01:56:19;2.40;81.10
11569;DHT22;5840;46.894;15.542;2023-04-07T01:58:46;2.30;81.00
11569;DHT22;5840;46.894;15.542;2023-04-07T02:01:14;2.30;81.20
11569;DHT22;5840;46.894;15.542;2023-04-07T02:03:44;2.30;80.90
11569;DHT22;5840;46.894;15.542;2023-04-07T02:06:18;2.30;81.20
11569;DHT22;5840;46.894;15.542;2023-04-07T02:08:48;2.30;81.30
11569;DHT22;5840;46.894;15.542;2023-04-07T02:11:17;2.20;81.50
11569;DHT22;5840;46.894;15.542;2023-04-07T02:13:46;2.20;81.70
11569;DHT22;5840;46.894;15.542;2023-04-07T02:16:15;2.20;81.50
11569;DHT22;5840;46.894;15.542;2023-04-07T02:18:43;2.20;81.90
11569;DHT22;5840;46.894;15.542;2023-04-07T02:21:14;2.20;82.60
11569;DHT22;5840;46.894;15.542;2023-04-07T02:23:41;2.10;81.90
11569;DHT22;5840;46.894;15.542;2023-04-07T02:26:08;2.10;82.40
11569;DHT22;5840;46.894;15.542;2023-04-07T02:28:36;2.00;83.20
11569;DHT22;5840;46.894;15.542;2023-04-07T02:31:03;2.00;83.20
11569;DHT22;5840;46.894;15.542;2023-04-07T02:33:29;2.00;83.40
11569;DHT22;5840;46.894;15.542;2023-04-07T02:35:56;1.90;84.40
11569;DHT22;5840;46.894;15.542;2023-04-07T02:38:25;1.80;84.60
11569;DHT22;5840;46.894;15.542;2023-04-07T02:40:52;1.80;84.30
11569;DHT22;5840;46.894;15.542;2023-04-07T02:43:19;1.80;84.10
11569;DHT22;5840;46.894;15.542;2023-04-07T02:45:46;1.80;84.10
11569;DHT22;5840;46.894;15.542;2023-04-07T02:48:13;1.80;84.50
11569;DHT22;5840;46.894;15.542;2023-04-07T02:50:40;1.80;85.20
11569;DHT22;5840;46.894;15.542;2023-04-07T02:53:07;1.80;84.80
11569;DHT22;5840;46.894;15.542;2023-04-07T02:55:36;1.80;84.80
11569;DHT22;5840;46.894;15.542;2023-04-07T02:58:03;1.80;86.00
11569;DHT22;5840;46.894;15.542;2023-04-07T03:00:30;1.80;85.80
11569;DHT22;5840;46.894;15.542;2023-04-07T03:02:57;1.70;86.10
11569;DHT22;5840;46.894;15.542;2023-04-07T03:05:23;1.80;86.30
11569;DHT22;5840;46.894;15.542;2023-04-07T03:07:50;1.70;86.10
11569;DHT22;5840;46.894;15.542;2023-04-07T03:10:18;1.70;85.70
11569;DHT22;5840;46.894;15.542;2023-04-07T03:12:46;1.70;85.80
11569;DHT22;5840;46.894;15.542;2023-04-07T03:15:13;1.70;85.30
11569;DHT22;5840;46.894;15.542;2023-04-07T03:17:40;1.70;86.10
11569;DHT22;5840;46.894;15.542;2023-04-07T03:20:07;1.80;86.70
11569;DHT22;5840;46.894;15.542;2023-04-07T03:22:34;1.80;86.40
11569;DHT22;5840;46.894;15.542;2023-04-07T03:25:01;1.80;86.60
11569;DHT22;5840;46.894;15.542;2023-04-07T03:27:28;1.80;86.70
11569;DHT22;5840;46.894;15.542;2023-04-07T03:29:56;1.70;85.80
11569;DHT22;5840;46.894;15.542;2023-04-07T03:32:23;1.70;86.00
11569;DHT22;5840;46.894;15.542;2023-04-07T03:34:50;1.70;86.00
11569;DHT22;5840;46.894;15.542;2023-04-07T03:37:17;1.70;85.50
11569;DHT22;5840;46.894;15.542;2023-04-07T03:39:44;1.70;84.70
11569;DHT22;5840;46.894;15.542;2023-04-07T03:42:11;1.70;87.30
11569;DHT22;5840;46.894;15.542;2023-04-07T03:44:38;1.70;87.20
11569;DHT22;5840;46.894;15.542;2023-04-07T03:47:06;1.70;87.10
11569;DHT22;5840;46.894;15.542;2023-04-07T03:49:33;1.70;88.50
11569;DHT22;5840;46.894;15.542;2023-04-07T03:52:03;1.60;88.20
11569;DHT22;5840;46.894;15.542;2023-04-07T03:54:29;1.60;88.00
11569;DHT22;5840;46.894;15.542;2023-04-07T03:56:56;1.60;88.00
11569;DHT22;5840;46.894;15.542;2023-04-07T03:59:24;1.60;88.20
11569;DHT22;5840;46.894;15.542;2023-04-07T04:01:51;1.50;88.20
11569;DHT22;5840;46.894;15.542;2023-04-07T04:04:19;1.60;89.00
11569;DHT22;5840;46.894;15.542;2023-04-07T04:06:46;1.50;88.70
11569;DHT22;5840;46.894;15.542;2023-04-07T04:09:13;1.50;88.10
11569;DHT22;5840;46.894;15.542;2023-04-07T04:11:40;1.50;88.80
11569;DHT22;5840;46.894;15.542;2023-04-07T04:14:07;1.40;89.40
11569;DHT22;5840;46.894;15.542;2023-04-07T04:16:33;1.30;90.00
11569;DHT22;5840;46.894;15.542;2023-04-07T04:19:01;1.30;88.80
11569;DHT22;5840;46.894;15.542;2023-04-07T04:21:29;1.30;89.00
11569;DHT22;5840;46.894;15.542;2023-04-07T04:23:56;1.30;89.10
11569;DHT22;5840;46.894;15.542;2023-04-07T04:26:23;1.30;89.50
11569;DHT22;5840;46.894;15.542;2023-04-07T04:28:50;1.40;90.00
11569;DHT22;5840;46.894;15.542;2023-04-07T04:31:17;1.40;90.20
11569;DHT22;5840;46.894;15.542;2023-04-07T04:33:45;1.40;90.40
11569;DHT22;5840;46.894;15.542;2023-04-07T04:36:12;1.40;90.50
11569;DHT22;5840;46.894;15.542;2023-04-07T04:38:40;1.40;90.50
11569;DHT22;5840;46.894;15.542;2023-04-07T04:41:07;1.40;90.40
11569;DHT22;5840;46.894;15.542;2023-04-07T04:43:34;1.40;91.30
11569;DHT22;5840;46.894;15.542;2023-04-07T04:46:01;1.40;92.30
11569;DHT22;5840;46.894;15.542;2023-04-07T04:48:28;1.50;91.50
11569;DHT22;5840;46.894;15.542;2023-04-07T04:50:55;1.50;92.20
11569;DHT22;5840;46.894;15.542;2023-04-07T04:53:21;1.50;92.50
11569;DHT22;5840;46.894;15.542;2023-04-07T04:55:50;1.50;92.20
11569;DHT22;5840;46.894;15.542;2023-04-07T04:58:18;1.50;92.10
11569;DHT22;5840;46.894;15.542;2023-04-07T05:00:45;1.50;92.30
11569;DHT22;5840;46.894;15.542;2023-04-07T05:03:12;1.50;92.00
11569;DHT22;5840;46.894;15.542;2023-04-07T05:05:38;1.60;91.50
11569;DHT22;5840;46.894;15.542;2023-04-07T05:08:07;1.60;91.40
11569;DHT22;5840;46.894;15.542;2023-04-07T05:10:37;1.70;91.40
11569;DHT22;5840;46.894;15.542;2023-04-07T05:13:06;1.70;90.90
11569;DHT22;5840;46.894;15.542;2023-04-07T05:15:32;1.80;91.10
11569;DHT22;5840;46.894;15.542;2023-04-07T05:17:59;1.90;91.00
11569;DHT22;5840;46.894;15.542;2023-04-07T05:20:26;1.90;91.90
11569;DHT22;5840;46.894;15.542;2023-04-07T05:22:53;2.00;92.70
11569;DHT22;5840;46.894;15.542;2023-04-07T05:25:20;2.00;92.20
11569;DHT22;5840;46.894;15.542;2023-04-07T05:27:47;2.10;90.90
11569;DHT22;5840;46.894;15.542;2023-04-07T05:30:15;2.20;90.40
11569;DHT22;5840;46.894;15.542;2023-04-07T05:32:42;2.20;90.10
11569;DHT22;5840;46.894;15.542;2023-04-07T05:35:09;2.50;93.10
11569;DHT22;5840;46.894;15.542;2023-04-07T05:37:36;2.60;91.70
11569;DHT22;5840;46.894;15.542;2023-04-07T05:40:04;2.60;90.60
11569;DHT22;5840;46.894;15.542;2023-04-07T05:42:31;2.70;91.20
11569;DHT22;5840;46.894;15.542;2023-04-07T05:44:58;2.70;91.00
11569;DHT22;5840;46.894;15.542;2023-04-07T05:47:26;2.70;91.20
11569;DHT22;5840;46.894;15.542;2023-04-07T05:49:53;2.70;91.20
11569;DHT22;5840;46.894;15.542;2023-04-07T05:52:20;2.80;90.70
11569;DHT22;5840;46.894;15.542;2023-04-07T05:54:47;2.80;91.00
11569;DHT22;5840;46.894;15.542;2023-04-07T05:57:14;2.80;91.10
11569;DHT22;5840;46.894;15.542;2023-04-07T05:59:41;2.80;91.40
11569;DHT22;5840;46.894;15.542;2023-04-07T06:02:08;2.90;91.60
11569;DHT22;5840;46.894;15.542;2023-04-07T06:04:36;2.90;92.20
11569;DHT22;5840;46.894;15.542;2023-04-07T06:07:04;2.90;92.30
11569;DHT22;5840;46.894;15.542;2023-04-07T06:09:31;3.00;93.40
11569;DHT22;5840;46.894;15.542;2023-04-07T06:11:58;3.00;94.40
11569;DHT22;5840;46.894;15.542;2023-04-07T06:14:26;3.00;94.30
11569;DHT22;5840;46.894;15.542;2023-04-07T06:16:53;3.10;94.40
11569;DHT22;5840;46.894;15.542;2023-04-07T06:19:20;3.20;93.30
11569;DHT22;5840;46.894;15.542;2023-04-07T06:21:48;3.20;92.90
11569;DHT22;5840;46.894;15.542;2023-04-07T06:24:15;3.20;92.00
11569;DHT22;5840;46.894;15.542;2023-04-07T06:26:43;3.30;91.60
11569;DHT22;5840;46.894;15.542;2023-04-07T06:29:11;3.30;91.70
11569;DHT22;5840;46.894;15.542;2023-04-07T06:31:38;3.40;92.30
11569;DHT22;5840;46.894;15.542;2023-04-07T06:34:05;3.50;92.40
11569;DHT22;5840;46.894;15.542;2023-04-07T06:36:32;3.60;93.10
11569;DHT22;5840;46.894;15.542;2023-04-07T06:39:00;3.70;94.00
11569;DHT22;5840;46.894;15.542;2023-04-07T06:41:27;3.80;92.80
11569;DHT22;5840;46.894;15.542;2023-04-07T06:43:54;3.90;92.70
11569;DHT22;5840;46.894;15.542;2023-04-07T06:46:21;4.10;93.10
11569;DHT22;5840;46.894;15.542;2023-04-07T06:48:51;4.30;92.90
11569;DHT22;5840;46.894;15.542;2023-04-07T06:51:18;4.50;93.40
11569;DHT22;5840;46.894;15.542;2023-04-07T06:53:45;4.80;93.00
11569;DHT22;5840;46.894;15.542;2023-04-07T06:56:14;5.00;92.20
11569;DHT22;5840;46.894;15.542;2023-04-07T06:58:41;5.20;93.30
11569;DHT22;5840;46.894;15.542;2023-04-07T07:01:08;5.30;93.50
11569;DHT22;5840;46.894;15.542;2023-04-07T07:03:35;5.40;94.60
11569;DHT22;5840;46.894;15.542;2023-04-07T07:06:02;5.50;94.20
11569;DHT22;5840;46.894;15.542;2023-04-07T07:08:29;5.70;93.20
11569;DHT22;5840;46.894;15.542;2023-04-07T07:10:56;5.90;91.90
11569;DHT22;5840;46.894;15.542;2023-04-07T07:13:26;6.20;93.40
11569;DHT22;5840;46.894;15.542;2023-04-07T07:15:53;6.40;92.00
11569;DHT22;5840;46.894;15.542;2023-04-07T07:18:19;6.60;91.40
11569;DHT22;5840;46.894;15.542;2023-04-07T07:20:46;6.70;91.50
11569;DHT22;5840;46.894;15.542;2023-04-07T07:23:13;6.70;89.30
11569;DHT22;5840;46.894;15.542;2023-04-07T07:25:40;6.80;88.60
11569;DHT22;5840;46.894;15.542;2023-04-07T07:28:07;6.90;83.40
11569;DHT22;5840;46.894;15.542;2023-04-07T07:30:38;7.00;79.80
11569;DHT22;5840;46.894;15.542;2023-04-07T07:33:05;7.10;81.10
11569;DHT22;5840;46.894;15.542;2023-04-07T07:35:32;7.20;80.00
11569;DHT22;5840;46.894;15.542;2023-04-07T07:38:00;7.30;79.10
11569;DHT22;5840;46.894;15.542;2023-04-07T07:40:27;7.40;78.30
11569;DHT22;5840;46.894;15.542;2023-04-07T07:42:53;7.50;80.40
11569;DHT22;5840;46.894;15.542;2023-04-07T07:45:21;7.70;79.10
11569;DHT22;5840;46.894;15.542;2023-04-07T07:47:49;7.90;79.00
11569;DHT22;5840;46.894;15.542;2023-04-07T07:50:16;8.20;80.80
11569;DHT22;5840;46.894;15.542;2023-04-07T07:52:43;8.60;85.70
11569;DHT22;5840;46.894;15.542;2023-04-07T07:55:10;9.00;81.50
11569;DHT22;5840;46.894;15.542;2023-04-07T07:57:37;9.40;80.20
11569;DHT22;5840;46.894;15.542;2023-04-07T08:00:05;9.60;78.70
11569;DHT22;5840;46.894;15.542;2023-04-07T08:02:32;9.90;78.40
11569;DHT22;5840;46.894;15.542;2023-04-07T08:05:02;10.10;78.60
11569;DHT22;5840;46.894;15.542;2023-04-07T08:07:29;10.50;77.30
11569;DHT22;5840;46.894;15.542;2023-04-07T08:09:56;10.70;74.00
11569;DHT22;5840;46.894;15.542;2023-04-07T08:12:23;11.00;74.70
11569;DHT22;5840;46.894;15.542;2023-04-07T08:14:50;11.30;72.90
11569;DHT22;5840;46.894;15.542;2023-04-07T08:17:17;11.60;73.70
11569;DHT22;5840;46.894;15.542;2023-04-07T08:19:44;11.80;72.40
11569;DHT22;5840;46.894;15.542;2023-04-07T08:22:13;12.10;73.10
11569;DHT22;5840;46.894;15.542;2023-04-07T08:24:40;12.40;67.20
11569;DHT22;5840;46.894;15.542;2023-04-07T08:27:07;12.70;68.80
11569;DHT22;5840;46.894;15.542;2023-04-07T08:29:34;13.10;67.30
11569;DHT22;5840;46.894;15.542;2023-04-07T08:32:01;13.40;67.10
11569;DHT22;5840;46.894;15.542;2023-04-07T08:34:28;13.50;63.00
11569;DHT22;5840;46.894;15.542;2023-04-07T08:36:55;13.70;63.30
11569;DHT22;5840;46.894;15.542;2023-04-07T08:39:23;13.90;61.70
11569;DHT22;5840;46.894;15.542;2023-04-07T08:41:52;14.20;63.30
11569;DHT22;5840;46.894;15.542;2023-04-07T08:44:21;14.50;60.20
11569;DHT22;5840;46.894;15.542;2023-04-07T08:46:49;14.80;61.80
11569;DHT22;5840;46.894;15.542;2023-04-07T08:49:17;15.00;57.10
11569;DHT22;5840;46.894;15.542;2023-04-07T08:51:45;14.90;58.00
11569;DHT22;5840;46.894;15.542;2023-04-07T08:54:14;14.60;56.90
11569;DHT22;5840;46.894;15.542;2023-04-07T08:56:44;14.30;55.80
11569;DHT22;5840;46.894;15.542;2023-04-07T08:59:12;14.10;54.90
11569;DHT22;5840;46.894;15.542;2023-04-07T09:01:40;13.90;57.00
11569;DHT22;5840;46.894;15.542;2023-04-07T09:04:08;14.10;54.70
11569;DHT22;5840;46.894;15.542;2023-04-07T09:06:36;13.90;51.10
11569;DHT22;5840;46.894;15.542;2023-04-07T09:09:04;13.70;54.70
11569;DHT22;5840;46.894;15.542;2023-04-07T09:11:34;13.50;52.70
11569;DHT22;5840;46.894;15.542;2023-04-07T09:14:02;13.30;52.30
11569;DHT22;5840;46.894;15.542;2023-04-07T09:16:30;13.10;51.30
11569;DHT22;5840;46.894;15.542;2023-04-07T09:18:57;12.90;51.30
11569;DHT22;5840;46.894;15.542;2023-04-07T09:21:24;12.80;51.40
11569;DHT22;5840;46.894;15.542;2023-04-07T09:23:52;12.70;51.80
11569;DHT22;5840;46.894;15.542;2023-04-07T09:26:21;12.80;53.00
11569;DHT22;5840;46.894;15.542;2023-04-07T09:28:52;12.80;52.10
11569;DHT22;5840;46.894;15.542;2023-04-07T09:31:21;12.80;51.50
11569;DHT22;5840;46.894;15.542;2023-04-07T09:33:50;12.90;51.80
11569;DHT22;5840;46.894;15.542;2023-04-07T09:36:18;13.10;54.70
11569;DHT22;5840;46.894;15.542;2023-04-07T09:38:45;13.40;55.10
11569;DHT22;5840;46.894;15.542;2023-04-07T09:41:13;13.70;50.90
11569;DHT22;5840;46.894;15.542;2023-04-07T09:43:42;13.90;49.10
11569;DHT22;5840;46.894;15.542;2023-04-07T09:46:12;14.00;52.30
11569;DHT22;5840;46.894;15.542;2023-04-07T09:48:41;14.20;49.60
11569;DHT22;5840;46.894;15.542;2023-04-07T09:51:10;14.40;52.30
11569;DHT22;5840;46.894;15.542;2023-04-07T09:53:45;14.40;50.20
11569;DHT22;5840;46.894;15.542;2023-04-07T09:56:13;14.40;49.00
11569;DHT22;5840;46.894;15.542;2023-04-07T09:58:43;14.20;47.80
11569;DHT22;5840;46.894;15.542;2023-04-07T10:01:11;14.10;48.70
11569;DHT22;5840;46.894;15.542;2023-04-07T10:03:40;14.30;50.70
11569;DHT22;5840;46.894;15.542;2023-04-07T10:06:07;14.20;50.50
11569;DHT22;5840;46.894;15.542;2023-04-07T10:08:36;14.30;50.30
11569;DHT22;5840;46.894;15.542;2023-04-07T10:11:04;14.60;51.00
11569;DHT22;5840;46.894;15.542;2023-04-07T10:13:32;14.80;47.10
11569;DHT22;5840;46.894;15.542;2023-04-07T10:16:02;15.10;47.60
11569;DHT22;5840;46.894;15.542;2023-04-07T10:18:30;15.40;48.80
11569;DHT22;5840;46.894;15.542;2023-04-07T10:21:02;15.70;49.00
11569;DHT22;5840;46.894;15.542;2023-04-07T10:23:41;15.80;46.20
11569;DHT22;5840;46.894;15.542;2023-04-07T10:26:10;16.00;51.60
11569;DHT22;5840;46.894;15.542;2023-04-07T10:28:40;16.10;49.60
11569;DHT22;5840;46.894;15.542;2023-04-07T10:31:08;16.30;46.70
11569;DHT22;5840;46.894;15.542;2023-04-07T10:33:46;16.40;50.40
11569;DHT22;5840;46.894;15.542;2023-04-07T10:36:16;16.70;45.80
11569;DHT22;5840;46.894;15.542;2023-04-07T10:39:18;16.90;50.40
11569;DHT22;5840;46.894;15.542;2023-04-07T10:41:45;17.10;46.00
11569;DHT22;5840;46.894;15.542;2023-04-07T10:44:45;17.40;47.50
11569;DHT22;5840;46.894;15.542;2023-04-07T10:47:14;17.60;48.40
11569;DHT22;5840;46.894;15.542;2023-04-07T10:50:16;17.80;48.60
11569;DHT22;5840;46.894;15.542;2023-04-07T10:52:46;17.80;45.70
11569;DHT22;5840;46.894;15.542;2023-04-07T10:55:29;17.90;44.10
11569;DHT22;5840;46.894;15.542;2023-04-07T10:58:15;18.10;49.30
11569;DHT22;5840;46.894;15.542;2023-04-07T11:01:15;18.00;43.20
11569;DHT22;5840;46.894;15.542;2023-04-07T11:03:58;17.80;43.70
11569;DHT22;5840;46.894;15.542;2023-04-07T11:06:25;17.90;47.50
11569;DHT22;5840;46.894;15.542;2023-04-07T11:08:54;18.10;48.50
11569;DHT22;5840;46.894;15.542;2023-04-07T11:11:37;18.60;49.00
11569;DHT22;5840;46.894;15.542;2023-04-07T11:14:04;18.90;48.40
11569;DHT22;5840;46.894;15.542;2023-04-07T11:16:39;18.90;43.80
11569;DHT22;5840;46.894;15.542;2023-04-07T11:19:06;19.10;48.80
11569;DHT22;5840;46.894;15.542;2023-04-07T11:21:33;19.30;47.40
11569;DHT22;5840;46.894;15.542;2023-04-07T11:24:02;19.50;48.50
11569;DHT22;5840;46.894;15.542;2023-04-07T11:26:29;19.70;43.00
11569;DHT22;5840;46.894;15.542;2023-04-07T11:29:02;19.80;46.70
11569;DHT22;5840;46.894;15.542;2023-04-07T11:31:30;19.80;46.90
11569;DHT22;5840;46.894;15.542;2023-04-07T11:33:58;19.60;41.10
11569;DHT22;5840;46.894;15.542;2023-04-07T11:36:27;19.70;46.80
11569;DHT22;5840;46.894;15.542;2023-04-07T11:38:54;19.80;46.90
11569;DHT22;5840;46.894;15.542;2023-04-07T11:41:24;19.90;44.70
11569;DHT22;5840;46.894;15.542;2023-04-07T11:44:05;19.70;41.90
11569;DHT22;5840;46.894;15.542;2023-04-07T11:46:33;19.50;44.80
11569;DHT22;5840;46.894;15.542;2023-04-07T11:49:11;19.20;45.60
11569;DHT22;5840;46.894;15.542;2023-04-07T11:51:38;19.00;43.40
11569;DHT22;5840;46.894;15.542;2023-04-07T11:54:05;18.70;44.80
11569;DHT22;5840;46.894;15.542;2023-04-07T11:56:45;18.30;44.20
11569;DHT22;5840;46.894;15.542;2023-04-07T11:59:20;18.10;48.30
11569;DHT22;5840;46.894;15.542;2023-04-07T12:01:48;18.40;47.70
11569;DHT22;5840;46.894;15.542;2023-04-07T12:04:15;18.60;46.70
11569;DHT22;5840;46.894;15.542;2023-04-07T12:06:44;19.00;48.70
11569;DHT22;5840;46.894;15.542;2023-04-07T12:09:25;19.30;50.80
11569;DHT22;5840;46.894;15.542;2023-04-07T12:11:55;19.30;42.80
11569;DHT22;5840;46.894;15.542;2023-04-07T12:14:23;19.30;42.50
11569;DHT22;5840;46.894;15.542;2023-04-07T12:16:50;19.00;42.10
11569;DHT22;5840;46.894;15.542;2023-04-07T12:19:21;19.00;44.80
11569;DHT22;5840;46.894;15.542;2023-04-07T12:21:48;19.00;44.10
11569;DHT22;5840;46.894;15.542;2023-04-07T12:24:15;19.10;45.00
11569;DHT22;5840;46.894;15.542;2023-04-07T12:26:42;18.70;42.20
11569;DHT22;5840;46.894;15.542;2023-04-07T12:29:10;18.40;45.00
11569;DHT22;5840;46.894;15.542;2023-04-07T12:31:37;18.40;45.10
11569;DHT22;5840;46.894;15.542;2023-04-07T12:34:04;18.30;42.30
11569;DHT22;5840;46.894;15.542;2023-04-07T12:36:32;18.00;46.70
11569;DHT22;5840;46.894;15.542;2023-04-07T12:38:59;18.10;44.20
11569;DHT22;5840;46.894;15.542;2023-04-07T12:41:26;18.00;45.60
11569;DHT22;5840;46.894;15.542;2023-04-07T12:43:53;18.00;45.30
11569;DHT22;5840;46.894;15.542;2023-04-07T12:46:22;18.00;43.70
11569;DHT22;5840;46.894;15.542;2023-04-07T12:48:49;18.10;42.90
11569;DHT22;5840;46.894;15.542;2023-04-07T12:51:16;18.10;43.80
11569;DHT22;5840;46.894;15.542;2023-04-07T12:53:43;18.10;43.20
11569;DHT22;5840;46.894;15.542;2023-04-07T12:56:10;18.10;46.80
11569;DHT22;5840;46.894;15.542;2023-04-07T12:58:38;18.30;45.40
11569;DHT22;5840;46.894;15.542;2023-04-07T13:01:05;18.60;46.90
11569;DHT22;5840;46.894;15.542;2023-04-07T13:03:33;18.60;43.00
11569;DHT22;5840;46.894;15.542;2023-04-07T13:06:00;18.50;42.70
11569;DHT22;5840;46.894;15.542;2023-04-07T13:08:29;18.50;42.60
11569;DHT22;5840;46.894;15.542;2023-04-07T13:10:56;18.40;44.20
11569;DHT22;5840;46.894;15.542;2023-04-07T13:13:23;18.20;43.00
11569;DHT22;5840;46.894;15.542;2023-04-07T13:15:50;18.10;46.40
11569;DHT22;5840;46.894;15.542;2023-04-07T13:18:17;18.00;43.50
11569;DHT22;5840;46.894;15.542;2023-04-07T13:20:46;17.70;43.00
11569;DHT22;5840;46.894;15.542;2023-04-07T13:23:13;17.60;42.30
11569;DHT22;5840;46.894;15.542;2023-04-07T13:25:40;17.70;42.90
11569;DHT22;5840;46.894;15.542;2023-04-07T13:28:07;17.80;43.50
11569;DHT22;5840;46.894;15.542;2023-04-07T13:30:35;17.70;45.00
11569;DHT22;5840;46.894;15.542;2023-04-07T13:33:02;17.80;45.10
11569;DHT22;5840;46.894;15.542;2023-04-07T13:35:29;17.80;45.10
11569;DHT22;5840;46.894;15.542;2023-04-07T13:38:01;17.70;43.10
11569;DHT22;5840;46.894;15.542;2023-04-07T13:40:29;17.70;42.80
11569;DHT22;5840;46.894;15.542;2023-04-07T13:42:56;17.70;44.30
11569;DHT22;5840;46.894;15.542;2023-04-07T13:45:23;17.60;46.10
11569;DHT22;5840;46.894;15.542;2023-04-07T13:47:50;17.40;44.10
11569;DHT22;5840;46.894;15.542;2023-04-07T13:50:17;17.20;42.50
11569;DHT22;5840;46.894;15.542;2023-04-07T13:52:44;17.40;45.30
11569;DHT22;5840;46.894;15.542;2023-04-07T13:55:12;17.50;45.20
11569;DHT22;5840;46.894;15.542;2023-04-07T13:57:40;17.00;44.10
11569;DHT22;5840;46.894;15.542;2023-04-07T14:00:08;17.00;46.40
11569;DHT22;5840;46.894;15.542;2023-04-07T14:02:35;17.00;46.40
11569;DHT22;5840;46.894;15.542;2023-04-07T14:05:03;16.80;44.70
11569;DHT22;5840;46.894;15.542;2023-04-07T14:07:30;16.60;44.20
11569;DHT22;5840;46.894;15.542;2023-04-07T14:09:57;16.60;47.40
11569;DHT22;5840;46.894;15.542;2023-04-07T14:12:25;16.60;44.90
11569;DHT22;5840;46.894;15.542;2023-04-07T14:14:52;16.50;44.80
11569;DHT22;5840;46.894;15.542;2023-04-07T14:17:19;16.50;45.20
11569;DHT22;5840;46.894;15.542;2023-04-07T14:19:46;16.80;48.30
11569;DHT22;5840;46.894;15.542;2023-04-07T14:22:14;17.00;45.20
11569;DHT22;5840;46.894;15.542;2023-04-07T14:24:41;17.00;44.10
11569;DHT22;5840;46.894;15.542;2023-04-07T14:27:08;17.10;42.80
11569;DHT22;5840;46.894;15.542;2023-04-07T14:29:36;17.20;44.30
11569;DHT22;5840;46.894;15.542;2023-04-07T14:32:03;17.20;44.70
11569;DHT22;5840;46.894;15.542;2023-04-07T14:34:30;17.20;47.20
11569;DHT22;5840;46.894;15.542;2023-04-07T14:36:57;16.90;45.30
11569;DHT22;5840;46.894;15.542;2023-04-07T14:39:24;16.70;46.20
11569;DHT22;5840;46.894;15.542;2023-04-07T14:41:51;16.60;46.00
11569;DHT22;5840;46.894;15.542;2023-04-07T14:44:18;16.50;49.90
11569;DHT22;5840;46.894;15.542;2023-04-07T14:46:47;16.40;49.50
11569;DHT22;5840;46.894;15.542;2023-04-07T14:49:14;16.10;47.40
11569;DHT22;5840;46.894;15.542;2023-04-07T14:51:41;16.10;48.00
11569;DHT22;5840;46.894;15.542;2023-04-07T14:54:08;15.90;48.40
11569;DHT22;5840;46.894;15.542;2023-04-07T14:56:35;16.00;51.30
11569;DHT22;5840;46.894;15.542;2023-04-07T14:59:02;16.00;51.50
11569;DHT22;5840;46.894;15.542;2023-04-07T15:01:28;15.80;51.30
11569;DHT22;5840;46.894;15.542;2023-04-07T15:03:57;15.70;52.50
11569;DHT22;5840;46.894;15.542;2023-04-07T15:06:25;15.50;53.70
11569;DHT22;5840;46.894;15.542;2023-04-07T15:08:52;15.20;53.00
11569;DHT22;5840;46.894;15.542;2023-04-07T15:11:19;14.90;53.80
11569;DHT22;5840;46.894;15.542;2023-04-07T15:13:46;14.60;54.70
11569;DHT22;5840;46.894;15.542;2023-04-07T15:16:13;14.50;54.80
11569;DHT22;5840;46.894;15.542;2023-04-07T15:18:42;14.30;55.50
11569;DHT22;5840;46.894;15.542;2023-04-07T15:21:12;14.10;56.30
11569;DHT22;5840;46.894;15.542;2023-04-07T15:23:39;14.00;56.60
11569;DHT22;5840;46.894;15.542;2023-04-07T15:26:07;13.90;57.20
11569;DHT22;5840;46.894;15.542;2023-04-07T15:28:35;13.90;57.20
11569;DHT22;5840;46.894;15.542;2023-04-07T15:31:02;13.90;56.90
11569;DHT22;5840;46.894;15.542;2023-04-07T15:33:33;13.70;57.30
11569;DHT22;5840;46.894;15.542;2023-04-07T15:36:00;13.80;60.10
11569;DHT22;5840;46.894;15.542;2023-04-07T15:38:28;13.90;60.60
11569;DHT22;5840;46.894;15.542;2023-04-07T15:40:55;14.00;61.70
11569;DHT22;5840;46.894;15.542;2023-04-07T15:43:22;13.90;61.90
11569;DHT22;5840;46.894;15.542;2023-04-07T15:45:53;13.70;60.20